Terminal Aerodrome Forecast
Issued by NWS North Platte, NE

Home | Current Version | Previous Version | Graphics & Text | Print | Product List | Glossary On
Versions: 1 2 3 4 5 6 7 8 9 10 11 12 13
352
FTUS43 KLBF 172341
TAFVTN
TAF
KVTN 172341Z 1800/1824 18007KT P6SM SKC
     FM181200 27009KT P6SM FEW250
     FM181400 32012KT P6SM SKC
     FM181500 33014G21KT P6SM SKC
     FM182200 36013KT P6SM SKC
     FM182300 04006KT P6SM SKC=

USA.gov is the U.S. government's official web portal to all federal, state and local government web resources and services.